TimeMDT,TemperatureF,Dew PointF,Humidity,Sea Level PressureIn,VisibilityMPH,Wind Direction,Wind SpeedMPH,Gust SpeedMPH,PrecipitationIn,Events,Conditions,WindDirDegrees,DateUTC
12:53 AM,48.9,14.0,25,29.96,10.0,North,16.1,-,N/A,,Clear,10,2013-06-01 06:53:00
1:53 AM,50.0,12.0,22,29.95,10.0,North,15.0,-,N/A,,Clear,10,2013-06-01 07:53:00
2:53 AM,44.1,14.0,30,29.96,10.0,Variable,4.6,-,N/A,,Clear,0,2013-06-01 08:53:00
3:53 AM,42.1,14.0,32,29.99,10.0,NNE,9.2,-,N/A,,Clear,20,2013-06-01 09:53:00
4:53 AM,37.9,12.9,36,30.02,10.0,Calm,Calm,-,N/A,,Clear,0,2013-06-01 10:53:00
5:53 AM,36.0,14.0,41,30.05,10.0,Calm,Calm,-,N/A,,Clear,0,2013-06-01 11:53:00
6:53 AM,39.0,16.0,39,30.06,10.0,Calm,Calm,-,N/A,,Clear,0,2013-06-01 12:53:00
7:53 AM,48.0,21.0,34,30.06,10.0,East,3.5,-,N/A,,Clear,90,2013-06-01 13:53:00
8:53 AM,55.0,21.0,27,30.06,10.0,Variable,3.5,-,N/A,,Clear,0,2013-06-01 14:53:00
9:53 AM,63.0,18.0,18,30.04,10.0,Calm,Calm,-,N/A,,Clear,0,2013-06-01 15:53:00
10:53 AM,64.0,12.0,13,30.04,10.0,West,6.9,-,N/A,,Clear,260,2013-06-01 16:53:00
11:53 AM,68.0,10.9,11,30.03,10.0,SW,6.9,-,N/A,,Clear,220,2013-06-01 17:53:00
12:53 PM,70.0,14.0,12,29.99,10.0,Variable,5.8,17.3,N/A,,Clear,0,2013-06-01 18:53:00
1:53 PM,72.0,12.9,10,29.96,10.0,West,9.2,-,N/A,,Clear,270,2013-06-01 19:53:00
2:53 PM,73.9,12.9,10,29.97,10.0,Variable,4.6,20.7,N/A,,Clear,0,2013-06-01 20:53:00
3:53 PM,78.1,12.9,8,29.94,10.0,West,9.2,17.3,N/A,,Clear,280,2013-06-01 21:53:00
4:53 PM,77.0,10.9,8,29.94,10.0,Variable,3.5,-,N/A,,Clear,0,2013-06-01 22:53:00
5:53 PM,78.1,10.0,7,29.94,10.0,SSW,11.5,16.1,N/A,,Clear,200,2013-06-01 23:53:00
6:53 PM,75.9,10.0,8,29.93,10.0,SW,8.1,-,N/A,,Clear,230,2013-06-02 00:53:00
7:53 PM,71.1,17.1,13,29.93,10.0,WSW,9.2,-,N/A,,Clear,240,2013-06-02 01:53:00
8:53 PM,64.9,17.1,16,29.95,10.0,SSW,6.9,-,N/A,,Clear,210,2013-06-02 02:53:00
9:53 PM,62.1,14.0,15,29.95,10.0,WSW,5.8,-,N/A,,Clear,250,2013-06-02 03:53:00
10:53 PM,55.9,15.1,20,29.99,10.0,NNE,9.2,-,N/A,,Clear,30,2013-06-02 04:53:00
11:53 PM,50.0,18.0,28,29.99,10.0,North,5.8,-,N/A,,Clear,10,2013-06-02 05:53:00